createdAt,value
2023-02-11T00:00:25.147Z,78.13
2023-02-11T00:01:25.147Z,78.04
2023-02-11T00:02:25.154Z,77.81
2023-02-11T00:03:25.132Z,77.67
2023-02-11T00:04:25.110Z,77.90
2023-02-11T00:05:25.104Z,78.09
2023-02-11T00:06:25.084Z,78.22
2023-02-11T00:07:25.063Z,77.96
2023-02-11T00:08:25.036Z,78.01
2023-02-11T00:09:25.025Z,78.09
2023-02-11T00:10:25.014Z,77.94
2023-02-11T00:11:25.004Z,77.76
2023-02-11T00:12:24.988Z,77.64
2023-02-11T00:13:25.019Z,77.54
2023-02-11T00:14:24.955Z,77.69
2023-02-11T00:15:24.976Z,77.75
2023-02-11T00:16:24.953Z,77.76
2023-02-11T00:17:24.921Z,77.90
2023-02-11T00:18:24.924Z,77.82
2023-02-11T00:19:24.905Z,77.75
2023-02-11T00:20:24.886Z,77.70
2023-02-11T00:21:24.881Z,77.78
2023-02-11T00:22:24.848Z,78.03
2023-02-11T00:23:24.841Z,78.22
2023-02-11T00:24:24.834Z,78.25
2023-02-11T00:25:24.844Z,78.31
2023-02-11T00:26:24.820Z,78.33
2023-02-11T00:27:24.782Z,78.22
2023-02-11T00:28:24.832Z,78.12
2023-02-11T00:29:24.756Z,78.17
2023-02-11T00:30:24.775Z,78.10
2023-02-11T00:31:25.037Z,77.85
2023-02-11T00:32:24.725Z,77.74
2023-02-11T00:33:24.762Z,77.73
2023-02-11T00:34:24.699Z,78.11
2023-02-11T00:35:24.699Z,78.30
2023-02-11T00:36:24.688Z,78.11
2023-02-11T00:37:24.670Z,77.93
2023-02-11T00:38:24.648Z,78.07
2023-02-11T00:39:24.667Z,78.17
2023-02-11T00:40:24.625Z,78.24
2023-02-11T00:41:24.610Z,78.17
2023-02-11T00:42:24.595Z,78.05
2023-02-11T00:43:24.606Z,77.96
2023-02-11T00:44:24.564Z,77.85
2023-02-11T00:45:24.570Z,77.69
2023-02-11T00:46:24.685Z,77.68
2023-02-11T00:47:24.553Z,77.33
2023-02-11T00:48:24.514Z,77.18
2023-02-11T00:49:24.526Z,77.10
2023-02-11T00:50:24.494Z,77.07
2023-02-11T00:51:24.497Z,77.09
2023-02-11T00:52:24.462Z,77.24
2023-02-11T00:53:24.462Z,77.32
2023-02-11T00:54:24.440Z,77.23
2023-02-11T00:55:24.455Z,77.25
2023-02-11T00:56:24.418Z,77.39
2023-02-11T00:57:24.399Z,77.51
2023-02-11T00:58:24.409Z,77.43
2023-02-11T00:59:24.370Z,77.36
2023-02-11T01:00:24.369Z,77.16
2023-02-11T01:01:24.439Z,77.20
2023-02-11T01:02:24.345Z,77.09
2023-02-11T01:03:24.341Z,77.07
2023-02-11T01:04:24.304Z,77.00
2023-02-11T01:05:24.338Z,76.97
2023-02-11T01:06:24.288Z,76.78
2023-02-11T01:07:24.297Z,77.04
2023-02-11T01:08:24.286Z,77.01
2023-02-11T01:09:24.259Z,76.97
2023-02-11T01:10:24.244Z,77.00
2023-02-11T01:11:24.233Z,76.61
2023-02-11T01:12:24.242Z,76.76
2023-02-11T01:13:24.237Z,76.93
2023-02-11T01:14:24.197Z,76.84
2023-02-11T01:15:24.191Z,76.85
2023-02-11T01:16:24.242Z,77.08
2023-02-11T01:17:24.154Z,77.15
2023-02-11T01:18:24.206Z,76.81
2023-02-11T01:19:24.154Z,77.06
2023-02-11T01:20:24.152Z,77.29
2023-02-11T01:21:24.101Z,77.39
2023-02-11T01:22:24.120Z,77.44
2023-02-11T01:23:24.105Z,77.45
2023-02-11T01:24:24.064Z,77.46
2023-02-11T01:25:24.111Z,77.49
2023-02-11T01:26:24.085Z,77.66
2023-02-11T01:27:24.026Z,77.74
2023-02-11T01:28:24.098Z,77.84
2023-02-11T01:29:23.996Z,77.96
2023-02-11T01:30:24.000Z,77.98
2023-02-11T01:31:24.049Z,77.99
2023-02-11T01:32:23.961Z,78.15
2023-02-11T01:33:23.959Z,77.69
2023-02-11T01:34:23.940Z,77.62
2023-02-11T01:35:23.921Z,77.29
2023-02-11T01:36:23.922Z,77.58
2023-02-11T01:37:23.913Z,77.94
2023-02-11T01:38:23.886Z,77.86
2023-02-11T01:39:23.873Z,77.91
2023-02-11T01:40:23.859Z,77.94
2023-02-11T01:41:23.861Z,78.12
2023-02-11T01:42:23.842Z,78.14
2023-02-11T01:43:23.842Z,78.22
2023-02-11T01:44:23.823Z,78.50
2023-02-11T01:45:23.797Z,78.54
2023-02-11T01:46:23.825Z,78.39
2023-02-11T01:47:23.772Z,78.29
2023-02-11T01:48:23.757Z,78.37
2023-02-11T01:49:23.786Z,78.47
2023-02-11T01:50:23.736Z,78.74
2023-02-11T01:51:23.717Z,78.99
2023-02-11T01:52:23.749Z,78.80
2023-02-11T01:53:23.695Z,78.63
2023-02-11T01:54:23.685Z,78.87
2023-02-11T01:55:23.687Z,78.99
2023-02-11T01:56:23.666Z,78.97
2023-02-11T01:57:23.641Z,79.12
2023-02-11T01:58:23.634Z,79.07
2023-02-11T01:59:23.618Z,79.06
2023-02-11T02:00:23.607Z,79.26
2023-02-11T02:01:23.613Z,79.24
2023-02-11T02:02:23.586Z,79.41
2023-02-11T02:03:23.590Z,79.27
2023-02-11T02:04:23.562Z,79.42
2023-02-11T02:05:23.547Z,79.50
2023-02-11T02:06:23.547Z,79.64
2023-02-11T02:07:23.533Z,79.74
2023-02-11T02:08:23.498Z,79.78
2023-02-11T02:09:23.505Z,79.81
2023-02-11T02:10:23.473Z,79.88
2023-02-11T02:11:23.467Z,80.02
2023-02-11T02:12:23.454Z,79.92
2023-02-11T02:13:23.461Z,79.99
2023-02-11T02:14:23.431Z,79.94
2023-02-11T02:15:23.426Z,79.82
2023-02-11T02:16:23.480Z,79.92
2023-02-11T02:17:23.398Z,79.87
2023-02-11T02:18:23.367Z,79.62
2023-02-11T02:19:23.380Z,79.70
2023-02-11T02:20:23.347Z,79.62
2023-02-11T02:21:23.348Z,79.46
2023-02-11T02:22:23.332Z,79.44
2023-02-11T02:23:23.309Z,79.61
2023-02-11T02:24:23.299Z,79.65
2023-02-11T02:25:23.322Z,79.55
2023-02-11T02:26:23.280Z,79.60
2023-02-11T02:27:23.246Z,79.69
2023-02-11T02:28:23.313Z,79.76
2023-02-11T02:29:23.232Z,79.72
2023-02-11T02:30:23.258Z,79.62
2023-02-11T02:31:23.259Z,79.66
2023-02-11T02:32:23.199Z,79.32
2023-02-11T02:33:23.343Z,79.17
2023-02-11T02:34:23.174Z,79.23
2023-02-11T02:35:23.146Z,79.19
2023-02-11T02:36:23.142Z,79.59
2023-02-11T02:37:23.139Z,79.47
2023-02-11T02:38:23.121Z,79.38
2023-02-11T02:39:23.104Z,79.46
2023-02-11T02:40:23.093Z,79.41
2023-02-11T02:41:23.072Z,79.38
2023-02-11T02:42:23.075Z,79.20
2023-02-11T02:43:23.084Z,79.31
2023-02-11T02:44:23.034Z,79.41
2023-02-11T02:45:23.049Z,79.18
2023-02-11T02:46:23.046Z,79.06
2023-02-11T02:47:23.003Z,78.83
2023-02-11T02:48:22.981Z,79.03
2023-02-11T02:49:22.993Z,78.75
2023-02-11T02:50:22.954Z,78.58
2023-02-11T02:51:22.953Z,78.78
2023-02-11T02:52:22.938Z,78.78
2023-02-11T02:53:22.932Z,78.68
2023-02-11T02:54:22.911Z,78.63
2023-02-11T02:55:22.951Z,78.61
2023-02-11T02:56:22.883Z,78.30
2023-02-11T02:57:22.877Z,78.28
2023-02-11T02:58:22.876Z,78.15
2023-02-11T02:59:22.854Z,78.39
2023-02-11T03:00:22.839Z,78.46
2023-02-11T03:01:22.831Z,78.18
2023-02-11T03:02:22.817Z,78.01
2023-02-11T03:03:22.875Z,77.70
2023-02-11T03:04:22.809Z,77.54
2023-02-11T03:05:22.784Z,77.68
2023-02-11T03:06:22.760Z,77.68
2023-02-11T03:07:22.779Z,77.58
2023-02-11T03:08:22.769Z,77.37
2023-02-11T03:09:22.718Z,77.82
2023-02-11T03:10:22.706Z,77.76
2023-02-11T03:11:22.695Z,76.28
2023-02-11T03:12:22.693Z,75.68
2023-02-11T03:13:22.690Z,75.52
2023-02-11T03:14:22.662Z,75.75
2023-02-11T03:15:22.650Z,75.89
2023-02-11T03:16:22.732Z,75.90
2023-02-11T03:17:22.644Z,76.06
2023-02-11T03:18:22.626Z,76.37
2023-02-11T03:19:22.620Z,76.35
2023-02-11T03:20:22.584Z,76.38
2023-02-11T03:21:22.570Z,76.47
2023-02-11T03:22:22.568Z,76.71
2023-02-11T03:23:22.556Z,76.20
2023-02-11T03:24:22.544Z,76.30
2023-02-11T03:25:22.540Z,75.85
2023-02-11T03:26:22.497Z,76.65
2023-02-11T03:27:22.504Z,77.26
2023-02-11T03:28:22.531Z,75.85
2023-02-11T03:29:22.486Z,76.13
2023-02-11T03:30:22.456Z,75.46
2023-02-11T03:31:22.582Z,74.47
2023-02-11T03:32:22.436Z,73.85
2023-02-11T03:33:22.423Z,73.10
2023-02-11T03:34:22.397Z,72.58
2023-02-11T03:35:22.404Z,71.70
2023-02-11T03:36:22.378Z,72.19
2023-02-11T03:37:22.384Z,72.50
2023-02-11T03:38:22.365Z,72.07
2023-02-11T03:39:22.332Z,71.14
2023-02-11T03:40:22.344Z,70.70
2023-02-11T03:41:22.315Z,70.33
2023-02-11T03:42:22.304Z,70.01
2023-02-11T03:43:22.315Z,69.58
2023-02-11T03:44:22.292Z,69.17
2023-02-11T03:45:22.259Z,68.80
2023-02-11T03:46:22.302Z,68.54
2023-02-11T03:47:22.241Z,68.20
2023-02-11T03:48:22.239Z,67.81
2023-02-11T03:49:22.245Z,67.70
2023-02-11T03:50:22.204Z,67.58
2023-02-11T03:51:22.184Z,67.87
2023-02-11T03:52:22.193Z,68.26
2023-02-11T03:53:22.160Z,68.73
2023-02-11T03:54:22.142Z,69.22
2023-02-11T03:55:22.143Z,69.62
2023-02-11T03:56:22.124Z,70.43
2023-02-11T03:57:22.104Z,70.87
2023-02-11T03:58:22.091Z,71.23
2023-02-11T03:59:22.092Z,71.68
2023-02-11T04:00:22.075Z,72.22
2023-02-11T04:01:22.101Z,72.83
2023-02-11T04:02:22.044Z,73.36
2023-02-11T04:03:22.098Z,73.86
2023-02-11T04:04:22.016Z,74.43
2023-02-11T04:05:22.003Z,74.99
2023-02-11T04:06:21.991Z,75.30
2023-02-11T04:07:21.998Z,75.49
2023-02-11T04:08:21.972Z,75.64
2023-02-11T04:09:21.951Z,75.81
2023-02-11T04:10:21.939Z,75.95
2023-02-11T04:11:21.926Z,75.95
2023-02-11T04:12:21.925Z,76.05
2023-02-11T04:13:21.915Z,76.17
2023-02-11T04:14:21.891Z,76.03
2023-02-11T04:15:21.885Z,76.04
2023-02-11T04:16:21.922Z,76.16
2023-02-11T04:17:21.849Z,76.29
2023-02-11T04:18:21.841Z,76.36
2023-02-11T04:19:21.838Z,76.57
2023-02-11T04:20:21.821Z,76.63
2023-02-11T04:21:21.801Z,76.53
2023-02-11T04:22:21.794Z,76.62
2023-02-11T04:23:21.785Z,76.53
2023-02-11T04:24:21.770Z,76.27
2023-02-11T04:25:21.785Z,76.16
2023-02-11T04:26:21.734Z,76.29
2023-02-11T04:27:21.721Z,76.36
2023-02-11T04:28:21.813Z,76.49
2023-02-11T04:29:21.698Z,76.48
2023-02-11T04:30:21.688Z,76.50
2023-02-11T04:31:21.826Z,76.42
2023-02-11T04:32:21.670Z,76.56
2023-02-11T04:33:21.665Z,76.75
2023-02-11T04:34:21.630Z,76.77
2023-02-11T04:35:21.625Z,76.78
2023-02-11T04:36:21.605Z,76.93
2023-02-11T04:37:21.609Z,77.02
2023-02-11T04:38:21.584Z,77.04
2023-02-11T04:39:21.576Z,77.07
2023-02-11T04:40:21.573Z,77.20
2023-02-11T04:41:21.546Z,77.32
2023-02-11T04:42:21.540Z,77.37
2023-02-11T04:43:21.553Z,77.29
2023-02-11T04:44:21.503Z,77.21
2023-02-11T04:45:21.502Z,77.20
2023-02-11T04:46:21.554Z,77.45
2023-02-11T04:47:21.484Z,77.99
2023-02-11T04:48:21.465Z,78.44
2023-02-11T04:49:21.472Z,78.58
2023-02-11T04:50:21.451Z,78.63
2023-02-11T04:51:21.425Z,78.67
2023-02-11T04:52:21.406Z,78.66
2023-02-11T04:53:21.392Z,78.76
2023-02-11T04:54:21.374Z,78.82
2023-02-11T04:55:21.389Z,79.06
2023-02-11T04:56:21.351Z,79.22
2023-02-11T04:57:21.351Z,79.29
2023-02-11T04:58:21.327Z,79.44
2023-02-11T04:59:21.317Z,79.55
2023-02-11T05:00:21.312Z,79.65
2023-02-11T05:01:21.386Z,79.67
2023-02-11T05:02:21.282Z,79.72
2023-02-11T05:03:21.269Z,79.82
2023-02-11T05:04:21.292Z,79.58
2023-02-11T05:05:21.250Z,79.33
2023-02-11T05:06:21.220Z,79.51
2023-02-11T05:07:21.221Z,79.72
2023-02-11T05:08:21.191Z,79.79
2023-02-11T05:09:21.181Z,79.56
2023-02-11T05:10:21.176Z,79.55
2023-02-11T05:11:21.158Z,79.67
2023-02-11T05:12:21.153Z,79.57
2023-02-11T05:13:21.159Z,79.13
2023-02-11T05:14:21.136Z,79.22
2023-02-11T05:15:21.116Z,79.32
2023-02-11T05:16:21.145Z,79.21
2023-02-11T05:17:21.088Z,79.01
2023-02-11T05:18:21.078Z,79.07
2023-02-11T05:19:21.078Z,79.14
2023-02-11T05:20:21.050Z,78.97
2023-02-11T05:21:21.053Z,79.28
2023-02-11T05:22:21.017Z,79.39
2023-02-11T05:23:21.013Z,79.41
2023-02-11T05:24:20.991Z,79.40
2023-02-11T05:25:21.007Z,79.22
2023-02-11T05:26:20.968Z,79.04
2023-02-11T05:27:20.979Z,79.05
2023-02-11T05:28:20.967Z,78.69
2023-02-11T05:29:20.951Z,78.51
2023-02-11T05:30:20.927Z,78.62
2023-02-11T05:31:20.939Z,78.40
2023-02-11T05:32:20.891Z,78.58
2023-02-11T05:33:20.885Z,78.77
2023-02-11T05:34:20.876Z,78.87
2023-02-11T05:35:20.865Z,78.97
2023-02-11T05:36:20.844Z,79.12
2023-02-11T05:37:20.878Z,79.37
2023-02-11T05:38:20.813Z,79.20
2023-02-11T05:39:20.794Z,79.04
2023-02-11T05:40:20.795Z,78.76
2023-02-11T05:41:20.779Z,78.24
2023-02-11T05:42:20.764Z,78.42
2023-02-11T05:43:20.769Z,78.42
2023-02-11T05:44:20.747Z,78.37
2023-02-11T05:45:20.725Z,78.36
2023-02-11T05:46:20.779Z,78.33
2023-02-11T05:47:20.704Z,78.47
2023-02-11T05:48:20.701Z,78.60
2023-02-11T05:49:20.701Z,78.75
2023-02-11T05:50:20.672Z,78.87
2023-02-11T05:51:20.658Z,78.77
2023-02-11T05:52:20.642Z,78.81
2023-02-11T05:53:20.639Z,78.85
2023-02-11T05:54:20.617Z,78.93
2023-02-11T05:55:20.619Z,79.33
2023-02-11T05:56:20.591Z,78.67
2023-02-11T05:57:20.597Z,78.42
2023-02-11T05:58:20.564Z,78.29
2023-02-11T05:59:20.540Z,78.39
2023-02-11T06:00:20.537Z,78.61
2023-02-11T06:01:20.529Z,78.82
2023-02-11T06:02:20.534Z,78.71
2023-02-11T06:03:20.517Z,78.49
2023-02-11T06:04:20.494Z,78.53
2023-02-11T06:05:20.476Z,78.04
2023-02-11T06:06:20.470Z,77.99
2023-02-11T06:07:20.475Z,77.47
2023-02-11T06:08:20.446Z,77.17
2023-02-11T06:09:20.427Z,77.04
2023-02-11T06:10:20.411Z,77.16
2023-02-11T06:11:20.416Z,77.50
2023-02-11T06:12:20.394Z,78.02
2023-02-11T06:13:20.398Z,77.92
2023-02-11T06:14:20.393Z,77.96
2023-02-11T06:15:20.345Z,78.06
2023-02-11T06:16:20.376Z,78.35
2023-02-11T06:17:20.321Z,78.66
2023-02-11T06:18:20.309Z,78.48
2023-02-11T06:19:20.322Z,78.43
2023-02-11T06:20:20.290Z,78.85
2023-02-11T06:21:20.268Z,79.05
2023-02-11T06:22:20.249Z,79.19
2023-02-11T06:23:20.248Z,79.39
2023-02-11T06:24:38.464Z,79.46
2023-02-11T06:25:21.257Z,79.53
2023-02-11T06:26:20.221Z,79.64
2023-02-11T06:27:20.203Z,79.69
2023-02-11T06:28:20.212Z,79.77
2023-02-11T06:29:20.176Z,79.84
2023-02-11T06:30:20.159Z,79.93
2023-02-11T06:31:20.328Z,80.11
2023-02-11T06:32:39.557Z,80.14
2023-02-11T06:33:21.124Z,80.26
2023-02-11T06:34:20.114Z,80.31
2023-02-11T06:35:20.101Z,80.32
2023-02-11T06:36:20.095Z,80.32
2023-02-11T06:37:20.096Z,80.33
2023-02-11T06:38:20.056Z,80.42
2023-02-11T06:39:20.099Z,80.58
2023-02-11T06:40:20.024Z,80.68
2023-02-11T06:41:20.020Z,80.72
2023-02-11T06:42:20.021Z,80.60
2023-02-11T06:43:20.019Z,80.42
2023-02-11T06:44:19.976Z,80.31
2023-02-11T06:45:19.972Z,80.27
2023-02-11T06:46:20.019Z,80.27
2023-02-11T06:47:19.983Z,79.91
2023-02-11T06:48:19.923Z,79.85
2023-02-11T06:49:19.940Z,79.93
2023-02-11T06:50:19.903Z,79.86
2023-02-11T06:51:19.888Z,79.74
2023-02-11T06:52:19.900Z,79.73
2023-02-11T06:53:19.879Z,79.47
2023-02-11T06:54:19.850Z,79.22
2023-02-11T06:55:20.013Z,79.07
2023-02-11T06:56:19.848Z,79.22
2023-02-11T06:57:19.833Z,79.21
2023-02-11T06:58:19.802Z,79.18
2023-02-11T06:59:19.792Z,79.20
2023-02-11T07:00:19.778Z,79.28
2023-02-11T07:01:20.199Z,79.45
2023-02-11T07:02:20.997Z,79.70
2023-02-11T07:03:19.815Z,79.73
2023-02-11T07:04:19.746Z,79.76
2023-02-11T07:05:19.726Z,79.87
2023-02-11T07:06:19.734Z,80.03
2023-02-11T07:07:19.714Z,80.13
2023-02-11T07:08:19.687Z,80.21
2023-02-11T07:09:19.659Z,80.27
2023-02-11T07:10:19.659Z,80.30
2023-02-11T07:11:19.655Z,80.29
2023-02-11T07:12:19.637Z,80.25
2023-02-11T07:13:19.645Z,80.32
2023-02-11T07:14:19.647Z,80.32
2023-02-11T07:15:19.582Z,80.35
2023-02-11T07:16:20.015Z,80.36
2023-02-11T07:17:19.571Z,80.08
2023-02-11T07:18:19.591Z,80.19
2023-02-11T07:19:19.548Z,80.44
2023-02-11T07:20:19.548Z,80.84
2023-02-11T07:21:19.508Z,80.96
2023-02-11T07:22:19.561Z,80.87
2023-02-11T07:23:19.515Z,80.84
2023-02-11T07:24:19.509Z,80.86
2023-02-11T07:25:19.475Z,80.81
2023-02-11T07:26:19.503Z,80.73
2023-02-11T07:27:19.426Z,80.47
2023-02-11T07:28:19.498Z,80.31
2023-02-11T07:29:19.403Z,80.10
2023-02-11T07:30:19.429Z,80.41
2023-02-11T07:31:19.531Z,80.35
2023-02-11T07:32:19.461Z,79.87
2023-02-11T07:33:19.439Z,80.10
2023-02-11T07:34:19.435Z,79.77
2023-02-11T07:35:19.337Z,79.56
2023-02-11T07:36:19.381Z,79.65
2023-02-11T07:37:19.319Z,80.01
2023-02-11T07:38:19.348Z,80.04
2023-02-11T07:39:19.285Z,80.12
2023-02-11T07:40:19.304Z,80.28
2023-02-11T07:41:19.275Z,80.07
2023-02-11T07:42:19.281Z,79.95
2023-02-11T07:43:19.247Z,77.98
2023-02-11T07:44:19.248Z,78.71
2023-02-11T07:45:19.207Z,79.16
2023-02-11T07:46:19.253Z,79.49
2023-02-11T07:47:19.183Z,79.17
2023-02-11T07:48:19.232Z,79.32
2023-02-11T07:49:19.159Z,79.17
2023-02-11T07:50:19.146Z,78.00
2023-02-11T07:51:19.124Z,78.88
2023-02-11T07:52:19.114Z,79.22
2023-02-11T07:53:19.128Z,78.71
2023-02-11T07:54:19.098Z,78.15
2023-02-11T07:55:19.109Z,77.61
2023-02-11T07:56:19.065Z,77.85
2023-02-11T07:57:19.823Z,78.29
2023-02-11T07:58:19.037Z,77.93
2023-02-11T07:59:19.021Z,76.78
2023-02-11T08:00:21.110Z,76.40
2023-02-11T08:01:19.114Z,75.66
2023-02-11T08:02:19.064Z,76.93
2023-02-11T08:03:19.020Z,77.47
2023-02-11T08:04:18.977Z,77.29
2023-02-11T08:05:18.961Z,75.36
2023-02-11T08:06:18.929Z,76.87
2023-02-11T08:07:18.948Z,77.05
2023-02-11T08:08:18.921Z,76.75
2023-02-11T08:09:18.888Z,73.24
2023-02-11T08:10:18.918Z,73.53
2023-02-11T08:11:18.887Z,72.87
2023-02-11T08:12:24.116Z,73.81
2023-02-11T08:13:18.884Z,74.11
2023-02-11T08:14:18.878Z,74.24
2023-02-11T08:15:18.804Z,74.25
2023-02-11T08:16:33.643Z,74.21
2023-02-11T08:17:18.780Z,73.73
2023-02-11T08:18:18.788Z,73.79
2023-02-11T08:19:18.824Z,75.70
2023-02-11T08:20:18.899Z,76.28
2023-02-11T08:21:22.038Z,75.82
2023-02-11T08:22:18.743Z,76.21
2023-02-11T08:23:18.731Z,75.52
2023-02-11T08:24:18.723Z,74.72
2023-02-11T08:25:18.706Z,75.46
2023-02-11T08:26:18.677Z,76.17
2023-02-11T08:27:18.672Z,76.88
2023-02-11T08:28:18.718Z,77.06
2023-02-11T08:29:18.638Z,77.32
2023-02-11T08:30:18.648Z,77.46
2023-02-11T08:31:18.781Z,77.26
2023-02-11T08:32:18.650Z,78.03
2023-02-11T08:33:18.572Z,77.67
2023-02-11T08:34:18.570Z,77.77
2023-02-11T08:35:18.554Z,78.13
2023-02-11T08:36:18.613Z,78.73
2023-02-11T08:37:18.578Z,78.91
2023-02-11T08:38:18.525Z,78.87
2023-02-11T08:39:20.272Z,78.71
2023-02-11T08:40:18.477Z,79.15
2023-02-11T08:41:18.483Z,79.07
2023-02-11T08:42:18.465Z,79.22
2023-02-11T08:43:18.457Z,78.96
2023-02-11T08:44:18.500Z,78.91
2023-02-11T08:45:18.413Z,78.94
2023-02-11T08:46:18.459Z,78.56
2023-02-11T08:47:18.416Z,78.59
2023-02-11T08:48:18.387Z,78.54
2023-02-11T08:49:18.735Z,78.16
2023-02-11T08:50:18.506Z,78.11
2023-02-11T08:51:18.703Z,77.13
2023-02-11T08:52:18.436Z,77.06
2023-02-11T08:53:18.306Z,76.79
2023-02-11T08:54:18.305Z,77.09
2023-02-11T08:55:18.301Z,77.18
2023-02-11T08:56:18.429Z,76.74
2023-02-11T08:57:18.416Z,76.94
2023-02-11T08:58:19.261Z,77.40
2023-02-11T08:59:18.689Z,77.48
2023-02-11T09:00:18.217Z,77.27
2023-02-11T09:01:18.302Z,76.94
2023-02-11T09:02:18.262Z,76.99
2023-02-11T09:03:18.181Z,77.50
2023-02-11T09:04:18.184Z,77.99
2023-02-11T09:05:18.154Z,78.27
2023-02-11T09:06:18.165Z,78.40
2023-02-11T09:07:18.158Z,78.18
2023-02-11T09:08:18.122Z,78.13
2023-02-11T09:09:18.096Z,77.58
2023-02-11T09:10:18.096Z,77.11
2023-02-11T09:11:18.076Z,76.92
2023-02-11T09:12:18.084Z,76.54
2023-02-11T09:13:18.105Z,75.69
2023-02-11T09:14:18.031Z,74.53
2023-02-11T09:15:18.009Z,73.36
2023-02-11T09:16:18.431Z,72.15
2023-02-11T09:17:18.014Z,71.27
2023-02-11T09:18:17.975Z,68.26
2023-02-11T09:19:17.983Z,66.09
2023-02-11T09:20:17.947Z,65.16
2023-02-11T09:21:17.943Z,64.33
2023-02-11T09:22:18.063Z,64.12
2023-02-11T09:23:18.656Z,62.74
2023-02-11T09:24:18.106Z,63.11
2023-02-11T09:25:17.921Z,62.90
2023-02-11T09:26:17.872Z,62.23
2023-02-11T09:27:17.871Z,63.01
2023-02-11T09:28:17.879Z,64.18
2023-02-11T09:29:17.902Z,63.92
2023-02-11T09:30:17.825Z,62.98
2023-02-11T09:31:17.934Z,61.41
2023-02-11T09:32:17.922Z,61.70
2023-02-11T09:33:17.786Z,61.67
2023-02-11T09:34:17.792Z,61.15
2023-02-11T09:35:17.753Z,60.44
2023-02-11T09:36:17.746Z,59.46
2023-02-11T09:37:17.755Z,59.16
2023-02-11T09:38:17.745Z,59.12
2023-02-11T09:39:17.849Z,57.88
2023-02-11T09:40:17.680Z,57.68
2023-02-11T09:41:17.706Z,57.76
2023-02-11T09:42:17.667Z,58.12
2023-02-11T09:43:17.810Z,58.31
2023-02-11T09:44:17.691Z,57.89
2023-02-11T09:45:17.643Z,57.44
2023-02-11T09:46:17.745Z,56.61
2023-02-11T09:47:18.565Z,56.58
2023-02-11T09:48:17.648Z,56.81
2023-02-11T09:49:17.635Z,57.42
2023-02-11T09:50:17.559Z,58.24
2023-02-11T09:51:17.550Z,57.41
2023-02-11T09:52:18.668Z,56.44
2023-02-11T09:53:18.066Z,57.09
2023-02-11T09:54:17.530Z,56.62
2023-02-11T09:55:17.545Z,56.26
2023-02-11T09:56:17.524Z,56.23
2023-02-11T09:57:28.140Z,56.29
2023-02-11T09:58:18.494Z,56.66
2023-02-11T09:59:17.457Z,56.75
2023-02-11T10:00:17.454Z,58.22
2023-02-11T10:01:19.959Z,56.09
2023-02-11T10:02:17.432Z,55.93
2023-02-11T10:03:22.359Z,55.97
2023-02-11T10:04:17.414Z,56.05
2023-02-11T10:05:17.363Z,56.08
2023-02-11T10:06:17.375Z,56.01
2023-02-11T10:07:17.375Z,56.09
2023-02-11T10:08:17.334Z,56.03
2023-02-11T10:09:17.346Z,56.24
2023-02-11T10:10:17.306Z,56.29
2023-02-11T10:11:30.602Z,56.53
2023-02-11T10:12:18.645Z,58.00
2023-02-11T10:13:17.397Z,56.07
2023-02-11T10:14:17.337Z,57.31
2023-02-11T10:15:17.476Z,57.29
2023-02-11T10:16:17.272Z,56.71
2023-02-11T10:17:17.217Z,55.42
2023-02-11T10:18:17.239Z,55.25
2023-02-11T10:19:17.201Z,55.23
2023-02-11T10:20:17.334Z,54.74
2023-02-11T10:21:17.172Z,54.67
2023-02-11T10:22:17.171Z,55.79
2023-02-11T10:23:17.124Z,56.14
2023-02-11T10:24:17.157Z,54.41
2023-02-11T10:25:17.123Z,54.02
2023-02-11T10:26:17.093Z,54.47
2023-02-11T10:27:17.092Z,54.98
2023-02-11T10:28:17.148Z,55.33
2023-02-11T10:29:17.095Z,53.93
2023-02-11T10:30:17.052Z,53.35
2023-02-11T10:31:17.181Z,53.86
2023-02-11T10:32:17.013Z,53.40
2023-02-11T10:33:17.032Z,53.22
2023-02-11T10:34:17.019Z,52.67
2023-02-11T10:35:16.970Z,53.21
2023-02-11T10:36:16.963Z,53.15
2023-02-11T10:37:16.938Z,52.18
2023-02-11T10:38:16.929Z,51.47
2023-02-11T10:39:16.963Z,51.80
2023-02-11T10:40:16.921Z,51.45
2023-02-11T10:41:16.897Z,51.41
2023-02-11T10:42:16.894Z,52.00
2023-02-11T10:43:16.882Z,50.66
2023-02-11T10:44:16.881Z,50.51
2023-02-11T10:45:16.840Z,49.95
2023-02-11T10:46:16.902Z,50.23
2023-02-11T10:47:16.804Z,49.55
2023-02-11T10:48:16.827Z,49.71
2023-02-11T10:49:16.793Z,49.61
2023-02-11T10:50:16.803Z,49.62
2023-02-11T10:51:16.764Z,49.71
2023-02-11T10:52:16.758Z,49.96
2023-02-11T10:53:16.719Z,49.58
2023-02-11T10:54:16.747Z,49.49
2023-02-11T10:55:16.736Z,49.29
2023-02-11T10:56:16.694Z,49.10
2023-02-11T10:57:16.694Z,48.74
2023-02-11T10:58:16.671Z,49.09
2023-02-11T10:59:17.723Z,49.18
2023-02-11T11:00:16.690Z,48.92
2023-02-11T11:01:24.275Z,48.72
2023-02-11T11:02:17.643Z,48.77
2023-02-11T11:03:16.592Z,48.61
2023-02-11T11:04:16.645Z,48.85
2023-02-11T11:05:16.620Z,48.86
2023-02-11T11:06:16.568Z,48.76
2023-02-11T11:07:17.281Z,48.65
2023-02-11T11:08:16.532Z,48.79
2023-02-11T11:09:16.694Z,48.61
2023-02-11T11:10:16.530Z,48.36
2023-02-11T11:11:16.527Z,48.45
2023-02-11T11:12:16.598Z,48.53
2023-02-11T11:13:16.461Z,48.82
2023-02-11T11:14:16.467Z,48.76
2023-02-11T11:15:16.436Z,48.37
2023-02-11T11:16:16.539Z,48.45
2023-02-11T11:17:16.438Z,48.76
2023-02-11T11:18:22.512Z,47.90
2023-02-11T11:19:17.387Z,47.43
2023-02-11T11:20:16.402Z,47.30
2023-02-11T11:21:16.397Z,47.69
2023-02-11T11:22:16.348Z,47.62
2023-02-11T11:23:16.363Z,47.88
2023-02-11T11:24:16.337Z,47.57
2023-02-11T11:25:16.289Z,47.63
2023-02-11T11:26:16.319Z,47.86
2023-02-11T11:27:16.298Z,47.68
2023-02-11T11:28:16.279Z,47.49
2023-02-11T11:29:16.292Z,47.44
2023-02-11T11:30:16.273Z,47.16
2023-02-11T11:31:16.385Z,47.36
2023-02-11T11:32:17.795Z,47.13
2023-02-11T11:33:16.201Z,46.89
2023-02-11T11:34:16.214Z,47.31
2023-02-11T11:35:16.166Z,47.09
2023-02-11T11:36:16.234Z,47.15
2023-02-11T11:37:16.143Z,46.64
2023-02-11T11:38:16.135Z,46.48
2023-02-11T11:39:16.125Z,46.44
2023-02-11T11:40:16.148Z,46.58
2023-02-11T11:41:16.192Z,46.65
2023-02-11T11:42:16.080Z,46.38
2023-02-11T11:43:16.059Z,46.10
2023-02-11T11:44:16.098Z,46.04
2023-02-11T11:45:16.032Z,46.70
2023-02-11T11:46:16.032Z,46.27
2023-02-11T11:47:16.676Z,45.70
2023-02-11T11:48:15.996Z,45.44
2023-02-11T11:49:15.960Z,45.66
2023-02-11T11:50:16.038Z,45.39
2023-02-11T11:51:15.947Z,45.36
2023-02-11T11:52:15.958Z,45.30
2023-02-11T11:53:15.908Z,45.29
2023-02-11T11:54:15.920Z,45.45
2023-02-11T11:55:15.900Z,44.93
2023-02-11T11:56:15.876Z,45.18
2023-02-11T11:57:15.890Z,45.45
2023-02-11T11:58:15.855Z,45.18
2023-02-11T11:59:15.828Z,45.31
2023-02-11T12:00:15.844Z,44.85
2023-02-11T12:01:15.843Z,45.05
2023-02-11T12:02:15.862Z,44.96
2023-02-11T12:03:15.856Z,44.75
2023-02-11T12:04:15.793Z,44.70
2023-02-11T12:05:15.756Z,44.87
2023-02-11T12:06:15.756Z,45.19
2023-02-11T12:07:15.739Z,45.03
2023-02-11T12:08:15.726Z,44.87
2023-02-11T12:09:15.718Z,44.58
2023-02-11T12:10:15.685Z,44.57
2023-02-11T12:11:15.687Z,44.43
2023-02-11T12:12:15.693Z,44.34
2023-02-11T12:13:15.647Z,44.63
2023-02-11T12:14:15.660Z,44.77
2023-02-11T12:15:15.623Z,44.37
2023-02-11T12:16:15.645Z,44.40
2023-02-11T12:17:15.640Z,44.51
2023-02-11T12:18:15.599Z,44.46
2023-02-11T12:19:15.578Z,44.54
2023-02-11T12:20:15.557Z,44.50
2023-02-11T12:21:15.540Z,44.42
2023-02-11T12:22:15.527Z,45.22
2023-02-11T12:23:15.571Z,45.00
2023-02-11T12:24:17.337Z,44.74
2023-02-11T12:25:15.476Z,44.65
2023-02-11T12:26:15.477Z,44.42
2023-02-11T12:27:15.471Z,44.66
2023-02-11T12:28:15.496Z,44.82
2023-02-11T12:29:15.432Z,44.63
2023-02-11T12:30:15.444Z,44.53
2023-02-11T12:31:15.571Z,44.89
2023-02-11T12:32:15.528Z,45.07
2023-02-11T12:33:15.377Z,44.62
2023-02-11T12:34:15.425Z,44.71
2023-02-11T12:35:15.379Z,44.42
2023-02-11T12:36:15.376Z,44.50
2023-02-11T12:37:15.335Z,44.35
2023-02-11T12:38:15.311Z,44.71
2023-02-11T12:39:15.318Z,44.67
2023-02-11T12:40:15.302Z,44.36
2023-02-11T12:41:15.343Z,44.31
2023-02-11T12:42:15.300Z,44.37
2023-02-11T12:43:15.240Z,44.67
2023-02-11T12:44:15.246Z,44.57
2023-02-11T12:45:15.218Z,44.81
2023-02-11T12:46:15.282Z,44.73
2023-02-11T12:47:15.231Z,44.93
2023-02-11T12:48:15.190Z,44.91
2023-02-11T12:49:15.170Z,45.06
2023-02-11T12:50:15.172Z,45.43
2023-02-11T12:51:15.173Z,45.54
2023-02-11T12:52:15.161Z,45.72